createdAt,value
2022-08-21T04:30:51.340Z,15.21
2022-08-21T04:31:51.344Z,15.19
2022-08-21T04:32:51.356Z,15.28
2022-08-21T04:33:51.297Z,15.25
2022-08-21T04:34:51.322Z,15.29
2022-08-21T04:35:51.280Z,15.21
2022-08-21T04:36:51.262Z,15.23
2022-08-21T04:37:51.306Z,15.23
2022-08-21T04:38:51.240Z,15.21
2022-08-21T04:39:53.557Z,15.27
2022-08-21T04:40:51.225Z,15.27
2022-08-21T04:41:51.220Z,15.23
2022-08-21T04:42:51.285Z,15.20
2022-08-21T04:43:51.182Z,15.21
2022-08-21T04:44:51.174Z,15.25
2022-08-21T04:45:51.187Z,15.28
2022-08-21T04:46:51.160Z,15.27
2022-08-21T04:47:52.719Z,15.21
2022-08-21T04:48:51.188Z,15.29
2022-08-21T04:49:51.131Z,15.23
2022-08-21T04:50:51.116Z,15.29
2022-08-21T04:51:51.101Z,15.21
2022-08-21T04:52:51.093Z,15.28
2022-08-21T04:53:51.084Z,15.28
2022-08-21T04:54:54.787Z,15.29
2022-08-21T04:55:51.075Z,15.21
2022-08-21T04:56:51.046Z,15.23
2022-08-21T04:57:51.042Z,15.27
2022-08-21T04:58:51.045Z,15.28
2022-08-21T04:59:51.028Z,15.28
2022-08-21T05:00:51.004Z,15.28
2022-08-21T05:01:51.017Z,15.41
2022-08-21T05:02:51.141Z,15.39
2022-08-21T05:03:50.986Z,15.35
2022-08-21T05:04:50.963Z,15.50
2022-08-21T05:05:50.964Z,15.41
2022-08-21T05:06:50.960Z,15.50
2022-08-21T05:07:50.929Z,15.53
2022-08-21T05:08:50.930Z,15.56
2022-08-21T05:09:51.933Z,15.57
2022-08-21T05:10:50.901Z,15.64
2022-08-21T05:11:50.889Z,15.59
2022-08-21T05:12:50.954Z,15.60
2022-08-21T05:13:57.096Z,15.56
2022-08-21T05:14:51.873Z,15.65
2022-08-21T05:15:50.848Z,15.59
2022-08-21T05:16:50.858Z,15.72
2022-08-21T05:17:52.519Z,15.60
2022-08-21T05:18:51.819Z,15.67
2022-08-21T05:19:50.800Z,15.60
2022-08-21T05:20:50.794Z,15.76
2022-08-21T05:21:50.775Z,15.72
2022-08-21T05:22:50.785Z,15.76
2022-08-21T05:23:50.772Z,15.75
2022-08-21T05:24:50.759Z,15.80
2022-08-21T05:25:50.742Z,15.82
2022-08-21T05:26:50.718Z,15.75
2022-08-21T05:27:51.996Z,15.84
2022-08-21T05:28:50.697Z,15.80
2022-08-21T05:29:50.707Z,15.71
2022-08-21T05:30:50.700Z,15.78
2022-08-21T05:31:50.693Z,15.86
2022-08-21T05:32:50.656Z,15.86
2022-08-21T05:33:50.649Z,15.87
2022-08-21T05:34:50.633Z,15.93
2022-08-21T05:35:50.645Z,15.90
2022-08-21T05:36:50.614Z,16.01
2022-08-21T05:37:50.611Z,16.00
2022-08-21T05:38:50.589Z,16.02
2022-08-21T05:40:20.238Z,16.07
2022-08-21T05:40:51.660Z,16.23
2022-08-21T05:41:50.561Z,16.14
2022-08-21T05:42:55.079Z,16.25
2022-08-21T05:43:50.537Z,16.27
2022-08-21T05:44:50.545Z,16.28
2022-08-21T05:45:51.457Z,16.35
2022-08-21T05:46:50.506Z,16.39
2022-08-21T05:47:50.508Z,16.35
2022-08-21T05:48:50.497Z,16.38
2022-08-21T05:49:50.476Z,16.27
2022-08-21T05:50:50.463Z,16.34
2022-08-21T05:51:50.473Z,16.35
2022-08-21T05:52:50.481Z,16.31
2022-08-21T05:53:51.462Z,16.30
2022-08-21T05:54:50.422Z,16.42
2022-08-21T05:55:50.416Z,16.42
2022-08-21T05:56:50.393Z,16.48
2022-08-21T05:57:50.396Z,16.56
2022-08-21T05:58:50.383Z,16.58
2022-08-21T05:59:50.386Z,16.58
2022-08-21T06:00:50.364Z,16.58
2022-08-21T06:01:50.432Z,16.73
2022-08-21T06:02:50.328Z,16.73
2022-08-21T06:03:50.349Z,16.73
2022-08-21T06:04:50.316Z,16.71
2022-08-21T06:05:50.312Z,16.88
2022-08-21T06:06:50.307Z,16.83
2022-08-21T06:07:50.284Z,16.86
2022-08-21T06:08:50.271Z,16.96
2022-08-21T06:09:50.263Z,16.94
2022-08-21T06:10:50.246Z,17.07
2022-08-21T06:11:50.265Z,17.16
2022-08-21T06:12:50.253Z,17.23
2022-08-21T06:13:50.252Z,17.26
2022-08-21T06:14:50.230Z,17.30
2022-08-21T06:15:50.187Z,17.46
2022-08-21T06:16:50.205Z,17.51
2022-08-21T06:17:50.170Z,17.55
2022-08-21T06:18:50.194Z,17.64
2022-08-21T06:19:50.143Z,17.79
2022-08-21T06:20:50.135Z,17.72
2022-08-21T06:21:50.127Z,17.89
2022-08-21T06:22:50.116Z,17.87
2022-08-21T06:23:50.139Z,17.86
2022-08-21T06:24:50.089Z,17.74
2022-08-21T06:25:50.086Z,17.81
2022-08-21T06:26:50.081Z,17.75
2022-08-21T06:27:50.064Z,17.78
2022-08-21T06:28:50.080Z,17.92
2022-08-21T06:29:50.058Z,18.03
2022-08-21T06:30:50.021Z,17.99
2022-08-21T06:31:50.025Z,18.17
2022-08-21T06:32:50.034Z,18.20
2022-08-21T06:33:50.001Z,18.36
2022-08-21T06:34:49.992Z,18.41
2022-08-21T06:35:49.978Z,18.41
2022-08-21T06:36:49.963Z,18.60
2022-08-21T06:37:49.975Z,18.66
2022-08-21T06:38:51.816Z,18.67
2022-08-21T06:39:50.023Z,18.75
2022-08-21T06:40:49.941Z,18.82
2022-08-21T06:41:49.906Z,18.84
2022-08-21T06:42:49.898Z,18.94
2022-08-21T06:43:49.893Z,19.08
2022-08-21T06:44:49.907Z,19.21
2022-08-21T06:45:49.897Z,19.26
2022-08-21T06:46:49.858Z,19.41
2022-08-21T06:47:49.846Z,19.47
2022-08-21T06:48:49.849Z,19.29
2022-08-21T06:49:49.831Z,19.25
2022-08-21T06:50:49.821Z,19.25
2022-08-21T06:51:49.818Z,19.37
2022-08-21T06:52:49.791Z,19.40
2022-08-21T06:53:49.782Z,19.55
2022-08-21T06:54:49.778Z,19.69
2022-08-21T06:55:49.768Z,19.84
2022-08-21T06:56:49.768Z,19.92
2022-08-21T06:57:52.390Z,19.86
2022-08-21T06:58:49.741Z,19.87
2022-08-21T06:59:49.718Z,19.94
2022-08-21T07:00:49.739Z,20.08
2022-08-21T07:01:49.767Z,20.14
2022-08-21T07:02:49.714Z,20.17
2022-08-21T07:03:49.673Z,20.28
2022-08-21T07:04:49.655Z,20.50
2022-08-21T07:05:49.655Z,20.47
2022-08-21T07:06:49.645Z,20.39
2022-08-21T07:07:49.631Z,20.52
2022-08-21T07:08:49.638Z,20.61
2022-08-21T07:09:49.613Z,20.72
2022-08-21T07:10:49.616Z,20.74
2022-08-21T07:11:49.587Z,20.84
2022-08-21T07:12:49.596Z,20.85
2022-08-21T07:13:49.562Z,20.74
2022-08-21T07:14:49.577Z,20.88
2022-08-21T07:15:49.549Z,20.91
2022-08-21T07:16:49.530Z,20.87
2022-08-21T07:17:49.524Z,20.88
2022-08-21T07:18:49.512Z,20.97
2022-08-21T07:19:49.512Z,21.01
2022-08-21T07:20:49.496Z,21.22
2022-08-21T07:21:49.494Z,21.21
2022-08-21T07:22:49.486Z,21.42
2022-08-21T07:23:49.458Z,21.64
2022-08-21T07:24:49.456Z,21.47
2022-08-21T07:25:50.439Z,21.40
2022-08-21T07:26:49.429Z,21.52
2022-08-21T07:27:49.418Z,21.71
2022-08-21T07:28:49.400Z,21.71
2022-08-21T07:29:49.390Z,21.84
2022-08-21T07:30:49.382Z,21.80
2022-08-21T07:31:49.398Z,21.77
2022-08-21T07:32:49.361Z,21.82
2022-08-21T07:33:49.346Z,21.99
2022-08-21T07:34:49.359Z,21.99
2022-08-21T07:35:49.381Z,21.86
2022-08-21T07:36:49.418Z,22.10
2022-08-21T07:37:49.360Z,22.27
2022-08-21T07:38:49.332Z,22.27
2022-08-21T07:39:49.329Z,22.35
2022-08-21T07:40:49.287Z,22.42
2022-08-21T07:41:49.278Z,22.47
2022-08-21T07:42:49.257Z,22.54
2022-08-21T07:43:49.265Z,22.51
2022-08-21T07:44:50.873Z,22.51
2022-08-21T07:45:50.229Z,22.52
2022-08-21T07:46:49.216Z,22.61
2022-08-21T07:47:51.913Z,22.52
2022-08-21T07:48:50.229Z,22.58
2022-08-21T07:49:49.190Z,22.72
2022-08-21T07:50:49.176Z,22.79
2022-08-21T07:51:49.163Z,22.82
2022-08-21T07:52:49.175Z,23.02
2022-08-21T07:53:49.135Z,23.07
2022-08-21T07:54:49.162Z,23.20
2022-08-21T07:55:49.114Z,23.20
2022-08-21T07:56:49.101Z,23.31
2022-08-21T07:57:49.100Z,23.40
2022-08-21T07:58:49.080Z,23.43
2022-08-21T07:59:49.072Z,23.35
2022-08-21T08:00:49.078Z,23.35
2022-08-21T08:01:49.062Z,23.35
2022-08-21T08:02:49.037Z,23.39
2022-08-21T08:03:49.025Z,23.51
2022-08-21T08:04:50.730Z,23.69
2022-08-21T08:05:49.012Z,23.75
2022-08-21T08:06:48.996Z,23.84
2022-08-21T08:07:48.983Z,24.03
2022-08-21T08:08:48.981Z,24.09
2022-08-21T08:09:48.981Z,24.22
2022-08-21T08:10:48.950Z,24.32
2022-08-21T08:11:49.034Z,24.40
2022-08-21T08:12:48.991Z,24.34
2022-08-21T08:13:48.961Z,24.39
2022-08-21T08:14:48.913Z,24.45
2022-08-21T08:15:48.909Z,24.47
2022-08-21T08:16:48.892Z,24.47
2022-08-21T08:17:48.903Z,24.53
2022-08-21T08:18:48.870Z,24.57
2022-08-21T08:19:48.854Z,24.65
2022-08-21T08:20:48.862Z,24.58
2022-08-21T08:21:48.855Z,24.55
2022-08-21T08:22:50.101Z,24.50
2022-08-21T08:23:48.813Z,24.61
2022-08-21T08:24:48.806Z,24.55
2022-08-21T08:25:48.823Z,24.55
2022-08-21T08:26:53.709Z,24.68
2022-08-21T08:27:49.768Z,24.73
2022-08-21T08:28:48.758Z,25.00
2022-08-21T08:29:48.751Z,25.02
2022-08-21T08:30:48.763Z,25.18
2022-08-21T08:31:48.745Z,25.25
2022-08-21T08:32:48.752Z,25.21
2022-08-21T08:33:48.712Z,25.17
2022-08-21T08:34:48.691Z,25.13
2022-08-21T08:35:48.698Z,25.14
2022-08-21T08:36:48.680Z,25.18
2022-08-21T08:37:52.289Z,25.27
2022-08-21T08:38:48.647Z,25.33
2022-08-21T08:39:48.711Z,25.38
2022-08-21T08:40:48.651Z,25.40
2022-08-21T08:41:48.669Z,25.38
2022-08-21T08:42:49.610Z,25.42
2022-08-21T08:43:48.615Z,25.57
2022-08-21T08:44:48.605Z,25.58
2022-08-21T08:45:48.616Z,25.50
2022-08-21T08:46:48.571Z,25.38
2022-08-21T08:47:48.556Z,25.33
2022-08-21T08:48:53.226Z,25.15
2022-08-21T08:49:48.537Z,25.17
2022-08-21T08:50:48.547Z,25.06
2022-08-21T08:51:48.527Z,25.02
2022-08-21T08:52:48.517Z,25.18
2022-08-21T08:53:48.499Z,25.35
2022-08-21T08:54:48.504Z,25.39
2022-08-21T08:55:48.498Z,25.57
2022-08-21T08:56:48.472Z,25.64
2022-08-21T08:57:49.393Z,25.65
2022-08-21T08:58:48.472Z,25.36
2022-08-21T08:59:48.446Z,25.39
2022-08-21T09:00:48.518Z,25.39
2022-08-21T09:01:48.511Z,25.55
2022-08-21T09:02:48.418Z,25.40
2022-08-21T09:03:48.393Z,25.52
2022-08-21T09:04:48.383Z,25.50
2022-08-21T09:05:48.367Z,25.60
2022-08-21T09:06:48.389Z,25.35
2022-08-21T09:07:48.347Z,25.42
2022-08-21T09:08:48.372Z,25.57
2022-08-21T09:09:48.321Z,25.76
2022-08-21T09:10:48.322Z,25.80
2022-08-21T09:11:48.312Z,25.98
2022-08-21T09:12:48.294Z,26.01
2022-08-21T09:13:48.296Z,26.05
2022-08-21T09:14:48.299Z,26.15
2022-08-21T09:15:48.263Z,26.28
2022-08-21T09:16:48.265Z,26.57
2022-08-21T09:17:48.237Z,26.63
2022-08-21T09:18:48.248Z,26.65
2022-08-21T09:19:48.224Z,26.36
2022-08-21T09:20:48.221Z,26.40
2022-08-21T09:21:48.202Z,26.50
2022-08-21T09:22:48.193Z,26.55
2022-08-21T09:23:48.177Z,26.63
2022-08-21T09:24:51.862Z,26.76
2022-08-21T09:25:48.158Z,26.84
2022-08-21T09:26:48.143Z,26.67
2022-08-21T09:27:48.138Z,26.54
2022-08-21T09:28:48.124Z,26.17
2022-08-21T09:29:48.190Z,26.15
2022-08-21T09:30:48.114Z,26.02
2022-08-21T09:31:48.091Z,25.97
2022-08-21T09:32:48.095Z,26.05
2022-08-21T09:33:48.070Z,26.12
2022-08-21T09:34:48.068Z,26.33
2022-08-21T09:35:48.047Z,26.48
2022-08-21T09:36:48.058Z,26.58
2022-08-21T09:37:48.045Z,26.76
2022-08-21T09:38:48.021Z,26.70
2022-08-21T09:39:48.935Z,26.72
2022-08-21T09:40:47.996Z,26.88
2022-08-21T09:41:47.984Z,27.09
2022-08-21T09:42:47.980Z,27.07
2022-08-21T09:43:47.969Z,26.89
2022-08-21T09:44:47.964Z,26.52
2022-08-21T09:45:47.959Z,26.58
2022-08-21T09:46:47.942Z,26.47
2022-08-21T09:47:47.951Z,26.58
2022-08-21T09:48:47.919Z,26.67
2022-08-21T09:49:47.900Z,26.80
2022-08-21T09:50:47.898Z,26.99
2022-08-21T09:51:47.896Z,27.03
2022-08-21T09:52:47.867Z,27.04
2022-08-21T09:53:47.879Z,27.17
2022-08-21T09:54:47.868Z,27.32
2022-08-21T09:55:47.848Z,27.40
2022-08-21T09:56:47.852Z,27.39
2022-08-21T09:57:50.236Z,27.40
2022-08-21T09:58:47.807Z,27.51
2022-08-21T09:59:47.830Z,27.69
2022-08-21T10:00:47.816Z,27.72
2022-08-21T10:01:47.777Z,27.74
2022-08-21T10:02:47.771Z,27.82
2022-08-21T10:03:47.765Z,27.92
2022-08-21T10:04:47.750Z,28.09
2022-08-21T10:05:47.754Z,28.18
2022-08-21T10:06:47.722Z,28.00
2022-08-21T10:07:47.738Z,27.60
2022-08-21T10:08:47.697Z,27.43
2022-08-21T10:09:47.710Z,27.41
2022-08-21T10:10:47.687Z,27.43
2022-08-21T10:11:47.662Z,27.55
2022-08-21T10:12:47.652Z,27.51
2022-08-21T10:13:47.656Z,27.65
2022-08-21T10:14:47.638Z,27.57
2022-08-21T10:15:47.653Z,27.70
2022-08-21T10:16:47.614Z,27.62
2022-08-21T10:17:47.640Z,27.81
2022-08-21T10:18:47.594Z,27.88
2022-08-21T10:19:47.589Z,27.93
2022-08-21T10:20:47.584Z,27.97
2022-08-21T10:21:49.217Z,27.99
2022-08-21T10:22:47.562Z,27.90
2022-08-21T10:23:47.540Z,27.72
2022-08-21T10:24:47.552Z,27.66
2022-08-21T10:25:52.059Z,27.69
2022-08-21T10:26:48.527Z,27.74
2022-08-21T10:27:47.502Z,27.84
2022-08-21T10:28:47.485Z,27.93
2022-08-21T10:29:47.498Z,28.07
2022-08-21T10:30:47.469Z,28.12
2022-08-21T10:31:47.456Z,28.33
2022-08-21T10:32:47.476Z,28.30
2022-08-21T10:33:47.434Z,28.24
2022-08-21T10:34:47.431Z,28.37
2022-08-21T10:35:47.416Z,28.46
2022-08-21T10:36:47.411Z,28.37
2022-08-21T10:37:47.394Z,28.30
2022-08-21T10:38:58.573Z,28.27
2022-08-21T10:39:48.399Z,28.22
2022-08-21T10:40:47.359Z,28.30
2022-08-21T10:41:47.351Z,28.36
2022-08-21T10:42:47.351Z,28.46
2022-08-21T10:43:47.348Z,28.62
2022-08-21T10:44:47.350Z,28.86
2022-08-21T10:45:47.312Z,28.80
2022-08-21T10:46:47.307Z,28.46
2022-08-21T10:47:47.298Z,28.48
2022-08-21T10:48:47.305Z,28.41
2022-08-21T10:49:47.293Z,28.18
2022-08-21T10:50:47.271Z,27.81
2022-08-21T10:51:47.274Z,27.65
2022-08-21T10:52:47.245Z,27.59
2022-08-21T10:53:47.256Z,27.65
2022-08-21T10:54:47.231Z,27.74
2022-08-21T10:55:47.214Z,27.72
2022-08-21T10:56:47.203Z,27.96
2022-08-21T10:57:47.195Z,27.99
2022-08-21T10:58:47.184Z,27.99
2022-08-21T10:59:47.186Z,28.06
2022-08-21T11:00:47.247Z,27.94
2022-08-21T11:01:47.148Z,27.96
2022-08-21T11:02:47.137Z,28.14
2022-08-21T11:03:47.147Z,28.27
2022-08-21T11:04:49.954Z,28.31
2022-08-21T11:05:50.626Z,28.49
2022-08-21T11:06:47.119Z,28.51
2022-08-21T11:07:47.087Z,28.46
2022-08-21T11:08:47.078Z,28.36
2022-08-21T11:09:47.115Z,28.22
2022-08-21T11:10:51.220Z,28.31
2022-08-21T11:11:53.792Z,28.29
2022-08-21T11:12:48.042Z,28.02
2022-08-21T11:13:47.031Z,28.12
2022-08-21T11:14:49.898Z,28.15
2022-08-21T11:15:47.028Z,28.30
2022-08-21T11:16:46.994Z,28.37
2022-08-21T11:17:46.982Z,28.34
2022-08-21T11:18:46.991Z,28.54
2022-08-21T11:19:46.979Z,28.51
2022-08-21T11:20:46.986Z,28.67
2022-08-21T11:21:46.949Z,28.81
2022-08-21T11:22:50.198Z,28.78
2022-08-21T11:23:47.942Z,28.58
2022-08-21T11:24:46.917Z,28.59
2022-08-21T11:25:46.900Z,28.73
2022-08-21T11:26:46.918Z,28.85
2022-08-21T11:27:46.899Z,29.00
2022-08-21T11:28:46.866Z,29.06
2022-08-21T11:29:46.855Z,29.16
2022-08-21T11:30:46.844Z,29.27
2022-08-21T11:31:46.889Z,29.33
2022-08-21T11:32:46.844Z,29.24
2022-08-21T11:33:46.816Z,29.33
2022-08-21T11:34:46.808Z,29.42
2022-08-21T11:35:46.792Z,29.53
2022-08-21T11:36:47.516Z,29.63
2022-08-21T11:37:46.807Z,29.43
2022-08-21T11:38:46.780Z,29.31
2022-08-21T11:39:46.834Z,29.39
2022-08-21T11:40:46.747Z,29.48
2022-08-21T11:41:46.731Z,29.39
2022-08-21T11:42:46.728Z,29.49
2022-08-21T11:43:46.727Z,29.61
2022-08-21T11:44:46.712Z,29.55
2022-08-21T11:45:46.692Z,29.53
2022-08-21T11:46:46.680Z,29.27
2022-08-21T11:47:48.929Z,29.31
2022-08-21T11:48:46.679Z,29.37
2022-08-21T11:49:46.651Z,29.39
2022-08-21T11:50:47.402Z,29.58
2022-08-21T11:51:46.629Z,29.55
2022-08-21T11:52:46.632Z,29.64
2022-08-21T11:53:49.815Z,29.64
2022-08-21T11:54:47.606Z,29.57
2022-08-21T11:55:46.608Z,29.48
2022-08-21T11:56:46.598Z,29.45
2022-08-21T11:57:46.568Z,29.33
2022-08-21T11:58:46.569Z,29.45
2022-08-21T11:59:46.560Z,29.52
2022-08-21T12:00:46.553Z,29.53
2022-08-21T12:01:46.622Z,29.43
2022-08-21T12:02:46.569Z,29.48
2022-08-21T12:03:46.534Z,29.52
2022-08-21T12:04:47.024Z,29.63
2022-08-21T12:05:46.501Z,29.49
2022-08-21T12:06:46.473Z,29.46
2022-08-21T12:07:46.471Z,29.36
2022-08-21T12:08:46.468Z,29.31
2022-08-21T12:09:46.495Z,29.15
2022-08-21T12:10:46.437Z,29.27
2022-08-21T12:11:46.439Z,29.27
2022-08-21T12:12:46.411Z,29.39
2022-08-21T12:13:46.403Z,29.42
2022-08-21T12:14:46.412Z,29.43
2022-08-21T12:15:46.391Z,29.57
2022-08-21T12:16:46.367Z,29.49
2022-08-21T12:17:46.384Z,29.08
2022-08-21T12:18:46.349Z,29.08
2022-08-21T12:19:46.341Z,29.16
2022-08-21T12:20:50.772Z,29.15
2022-08-21T12:21:46.334Z,29.24
2022-08-21T12:22:46.323Z,29.28
2022-08-21T12:23:47.306Z,29.36
2022-08-21T12:24:46.291Z,29.42
2022-08-21T12:25:46.279Z,29.28
2022-08-21T12:26:46.265Z,29.28
2022-08-21T12:27:46.257Z,29.19
2022-08-21T12:28:46.285Z,29.05
2022-08-21T12:29:46.233Z,29.09
2022-08-21T12:30:46.228Z,28.71
2022-08-21T12:31:46.234Z,28.55
2022-08-21T12:32:46.203Z,28.36
2022-08-21T12:33:46.199Z,28.09
2022-08-21T12:34:46.204Z,28.06
2022-08-21T12:35:46.192Z,28.09
2022-08-21T12:36:46.194Z,28.15
2022-08-21T12:37:46.157Z,28.17
2022-08-21T12:38:46.148Z,28.21
2022-08-21T12:39:46.175Z,28.22
2022-08-21T12:40:46.148Z,28.27
2022-08-21T12:41:46.130Z,28.46
2022-08-21T12:42:56.519Z,28.22
2022-08-21T12:43:47.096Z,28.41
2022-08-21T12:44:46.083Z,28.39
2022-08-21T12:45:46.074Z,28.40
2022-08-21T12:46:46.077Z,28.51
2022-08-21T12:47:46.067Z,28.43
2022-08-21T12:48:46.051Z,28.46
2022-08-21T12:49:46.045Z,28.31
2022-08-21T12:50:48.891Z,28.34
2022-08-21T12:51:46.010Z,28.12
2022-08-21T12:52:45.996Z,27.90
2022-08-21T12:53:45.999Z,27.81
2022-08-21T12:54:45.977Z,27.72
2022-08-21T12:55:45.979Z,27.69
2022-08-21T12:56:45.956Z,27.82
2022-08-21T12:57:45.944Z,27.85
2022-08-21T12:58:45.948Z,27.84
2022-08-21T12:59:45.935Z,28.06
2022-08-21T13:00:45.910Z,28.18
2022-08-21T13:01:45.973Z,28.31
2022-08-21T13:02:45.931Z,28.22
2022-08-21T13:03:45.895Z,28.14
2022-08-21T13:04:45.871Z,28.11
2022-08-21T13:05:45.874Z,28.15
2022-08-21T13:06:45.858Z,28.19
2022-08-21T13:07:45.899Z,28.17
2022-08-21T13:08:47.390Z,28.14
2022-08-21T13:09:45.808Z,28.11
2022-08-21T13:10:45.801Z,28.12
2022-08-21T13:11:45.806Z,28.00
2022-08-21T13:12:45.865Z,28.14
2022-08-21T13:13:50.071Z,28.22
2022-08-21T13:14:46.290Z,28.29
2022-08-21T13:15:47.895Z,28.34
2022-08-21T13:16:45.736Z,28.36
2022-08-21T13:17:45.727Z,28.48
2022-08-21T13:18:45.731Z,28.51
2022-08-21T13:19:45.733Z,28.49
2022-08-21T13:20:45.692Z,28.49
2022-08-21T13:21:45.679Z,28.66
2022-08-21T13:22:45.786Z,28.67
2022-08-21T13:23:49.123Z,28.68
2022-08-21T13:24:45.687Z,28.71
2022-08-21T13:25:45.662Z,28.67
2022-08-21T13:26:45.653Z,28.64
2022-08-21T13:27:45.618Z,28.64
2022-08-21T13:28:45.604Z,28.66
2022-08-21T13:29:48.406Z,28.56
2022-08-21T13:30:45.624Z,28.55
2022-08-21T13:31:45.570Z,28.59
2022-08-21T13:32:45.563Z,28.51
2022-08-21T13:33:45.552Z,28.55
2022-08-21T13:34:45.564Z,28.64
2022-08-21T13:35:45.541Z,28.70
2022-08-21T13:36:45.531Z,28.81
2022-08-21T13:37:45.511Z,28.71
2022-08-21T13:38:45.519Z,28.77
2022-08-21T13:39:45.514Z,28.81
2022-08-21T13:40:45.496Z,28.81
2022-08-21T13:41:45.460Z,28.54
2022-08-21T13:42:45.471Z,28.49
2022-08-21T13:43:45.436Z,28.46
2022-08-21T13:44:45.486Z,28.46
2022-08-21T13:45:45.416Z,28.52
2022-08-21T13:46:45.398Z,28.51
2022-08-21T13:47:45.404Z,28.40
2022-08-21T13:48:45.426Z,28.37
2022-08-21T13:49:45.374Z,28.37
2022-08-21T13:50:45.365Z,28.31
2022-08-21T13:51:45.353Z,28.21
2022-08-21T13:52:45.337Z,28.15
2022-08-21T13:53:45.343Z,28.02
2022-08-21T13:54:45.343Z,27.94
2022-08-21T13:55:45.318Z,28.02
2022-08-21T13:56:45.304Z,27.93
2022-08-21T13:57:45.285Z,27.96
2022-08-21T13:58:45.303Z,27.96
2022-08-21T13:59:45.288Z,27.94
2022-08-21T14:00:45.265Z,27.88
2022-08-21T14:01:45.266Z,27.82
2022-08-21T14:02:45.232Z,27.74
2022-08-21T14:03:45.260Z,27.79
2022-08-21T14:04:45.217Z,27.69
2022-08-21T14:05:45.246Z,27.70
2022-08-21T14:06:45.207Z,27.51
2022-08-21T14:07:45.211Z,27.44
2022-08-21T14:08:45.194Z,27.50
2022-08-21T14:09:45.183Z,27.47
2022-08-21T14:10:45.164Z,27.46
2022-08-21T14:11:45.161Z,27.51
2022-08-21T14:12:45.136Z,27.49
2022-08-21T14:13:45.157Z,27.50
2022-08-21T14:14:45.119Z,27.40
2022-08-21T14:15:45.107Z,27.36
2022-08-21T14:16:45.094Z,27.44
2022-08-21T14:17:45.109Z,27.31
2022-08-21T14:18:45.071Z,27.28
2022-08-21T14:19:45.077Z,27.22
2022-08-21T14:20:45.066Z,27.19
2022-08-21T14:21:45.042Z,27.18
2022-08-21T14:22:45.026Z,27.14
2022-08-21T14:23:45.024Z,27.00
2022-08-21T14:24:45.019Z,27.19
2022-08-21T14:25:45.048Z,27.12
2022-08-21T14:26:45.002Z,27.28
2022-08-21T14:27:45.008Z,27.34
2022-08-21T14:28:44.966Z,27.36
2022-08-21T14:29:44.984Z,27.34
2022-08-21T14:30:44.946Z,27.28
2022-08-21T14:31:44.948Z,27.37
2022-08-21T14:32:45.930Z,27.43
2022-08-21T14:33:44.931Z,27.47
2022-08-21T14:34:44.906Z,27.50
2022-08-21T14:35:44.914Z,27.50
2022-08-21T14:36:44.880Z,27.43
2022-08-21T14:37:44.923Z,27.37
2022-08-21T14:38:44.871Z,27.29
2022-08-21T14:39:45.425Z,27.28
2022-08-21T14:40:44.887Z,27.12
2022-08-21T14:41:44.827Z,27.19
2022-08-21T14:42:44.861Z,27.09
2022-08-21T14:43:44.818Z,27.12
2022-08-21T14:44:44.791Z,27.12
2022-08-21T14:45:44.790Z,27.06
2022-08-21T14:46:55.505Z,27.12
2022-08-21T14:47:45.791Z,26.99
2022-08-21T14:48:44.770Z,27.02
2022-08-21T14:49:44.755Z,27.03
2022-08-21T14:50:44.760Z,27.00
2022-08-21T14:51:54.359Z,27.04
2022-08-21T14:52:45.723Z,27.03
2022-08-21T14:53:44.708Z,27.03
2022-08-21T14:54:44.728Z,26.95
2022-08-21T14:55:44.679Z,26.97
2022-08-21T14:56:44.674Z,26.99
2022-08-21T14:57:44.658Z,26.99
2022-08-21T14:58:44.641Z,27.06
2022-08-21T14:59:44.635Z,26.95
2022-08-21T15:00:44.638Z,26.92
2022-08-21T15:01:44.679Z,26.88
2022-08-21T15:02:44.626Z,26.97
2022-08-21T15:03:44.599Z,26.94
2022-08-21T15:04:45.456Z,26.94
2022-08-21T15:05:44.611Z,27.00
2022-08-21T15:06:44.557Z,27.06
2022-08-21T15:07:44.557Z,27.07
2022-08-21T15:08:44.550Z,26.87
2022-08-21T15:09:44.541Z,27.00
2022-08-21T15:11:10.169Z,27.03
2022-08-21T15:11:45.508Z,27.03
2022-08-21T15:12:44.508Z,27.04
2022-08-21T15:13:44.489Z,27.00
2022-08-21T15:14:44.513Z,27.00
2022-08-21T15:15:44.481Z,27.03
2022-08-21T15:16:44.470Z,27.07
2022-08-21T15:17:48.188Z,26.99
2022-08-21T15:18:44.434Z,27.03
2022-08-21T15:19:44.421Z,27.03
2022-08-21T15:20:44.431Z,27.07
2022-08-21T15:21:44.429Z,26.99
2022-08-21T15:22:47.809Z,26.89
2022-08-21T15:23:44.384Z,26.91
2022-08-21T15:24:44.401Z,26.95
2022-08-21T15:25:44.361Z,26.88
2022-08-21T15:26:44.361Z,26.97
2022-08-21T15:27:44.354Z,26.94
2022-08-21T15:28:44.330Z,26.87
2022-08-21T15:29:44.320Z,26.97
2022-08-21T15:30:44.334Z,26.88
2022-08-21T15:31:44.300Z,26.85
2022-08-21T15:32:44.298Z,26.94
2022-08-21T15:33:44.316Z,26.87
2022-08-21T15:34:44.264Z,26.88
2022-08-21T15:35:44.253Z,26.82
2022-08-21T15:36:44.244Z,26.84
2022-08-21T15:37:44.245Z,26.81
2022-08-21T15:38:44.231Z,26.76
2022-08-21T15:39:46.407Z,26.70
2022-08-21T15:40:51.821Z,26.66
2022-08-21T15:41:45.189Z,26.65
2022-08-21T15:42:44.228Z,26.60
2022-08-21T15:43:44.173Z,26.65
2022-08-21T15:44:44.151Z,26.51
2022-08-21T15:45:44.154Z,26.55
2022-08-21T15:46:44.149Z,26.52
2022-08-21T15:47:44.126Z,26.48
2022-08-21T15:48:44.145Z,26.48
2022-08-21T15:49:44.107Z,26.47
2022-08-21T15:50:44.100Z,26.52
2022-08-21T15:51:44.114Z,26.48
2022-08-21T15:52:44.075Z,26.52
2022-08-21T15:53:44.060Z,26.44
2022-08-21T15:54:44.087Z,26.51
2022-08-21T15:55:44.086Z,26.57
2022-08-21T15:56:44.029Z,26.45
2022-08-21T15:57:44.023Z,26.50
2022-08-21T15:58:45.014Z,26.43
2022-08-21T15:59:43.997Z,26.47
2022-08-21T16:00:43.992Z,26.35
2022-08-21T16:01:44.838Z,26.35
2022-08-21T16:02:43.996Z,26.44
2022-08-21T16:03:43.972Z,26.54
2022-08-21T16:04:43.945Z,26.32
2022-08-21T16:05:43.938Z,26.18
2022-08-21T16:06:54.224Z,26.20
2022-08-21T16:07:44.990Z,26.26
2022-08-21T16:08:43.929Z,26.25
2022-08-21T16:09:43.892Z,26.13
2022-08-21T16:10:43.885Z,26.09
2022-08-21T16:11:43.870Z,26.09
2022-08-21T16:12:43.863Z,26.10
2022-08-21T16:13:43.890Z,26.20
2022-08-21T16:14:43.857Z,26.06
2022-08-21T16:15:43.831Z,26.05
2022-08-21T16:16:43.821Z,26.05
2022-08-21T16:17:43.809Z,25.95
2022-08-21T16:18:43.794Z,25.92
2022-08-21T16:19:43.806Z,25.99
2022-08-21T16:20:43.777Z,25.85
2022-08-21T16:21:43.783Z,25.80
2022-08-21T16:22:44.630Z,25.73
2022-08-21T16:23:43.758Z,25.64
2022-08-21T16:24:43.741Z,25.73
2022-08-21T16:25:43.747Z,25.70
2022-08-21T16:26:43.739Z,25.72
2022-08-21T16:27:43.702Z,25.69
2022-08-21T16:28:43.716Z,25.67
2022-08-21T16:29:43.679Z,25.72
2022-08-21T16:30:43.691Z,25.75
2022-08-21T16:31:43.666Z,25.77
2022-08-21T16:32:43.651Z,25.72
2022-08-21T16:33:43.638Z,25.70
2022-08-21T16:34:43.647Z,25.65
2022-08-21T16:35:43.640Z,25.73
2022-08-21T16:36:43.633Z,25.75
2022-08-21T16:37:43.658Z,25.64
2022-08-21T16:38:43.607Z,25.60
2022-08-21T16:39:43.679Z,25.60
2022-08-21T16:40:43.564Z,25.61
2022-08-21T16:41:43.565Z,25.62
2022-08-21T16:42:43.564Z,25.61
2022-08-21T16:43:43.534Z,25.64
2022-08-21T16:44:43.558Z,25.61
2022-08-21T16:45:44.549Z,25.58
2022-08-21T16:46:43.505Z,25.47
2022-08-21T16:47:43.512Z,25.47
2022-08-21T16:48:43.493Z,25.57
2022-08-21T16:49:43.493Z,25.47
2022-08-21T16:50:45.896Z,25.45
2022-08-21T16:51:43.460Z,25.52
2022-08-21T16:52:43.454Z,25.52
2022-08-21T16:53:43.429Z,25.38
2022-08-21T16:54:43.440Z,25.36
2022-08-21T16:55:43.419Z,25.43
2022-08-21T16:56:47.459Z,25.35
2022-08-21T16:57:43.389Z,25.23
2022-08-21T16:58:43.384Z,25.21
2022-08-21T16:59:43.369Z,25.24
2022-08-21T17:00:43.379Z,25.27
2022-08-21T17:01:43.375Z,25.25
2022-08-21T17:02:43.360Z,25.18
2022-08-21T17:03:43.348Z,25.32
2022-08-21T17:04:43.317Z,25.24
2022-08-21T17:05:43.303Z,25.27
2022-08-21T17:06:43.300Z,25.18
2022-08-21T17:07:43.293Z,25.27
2022-08-21T17:08:43.306Z,25.33
2022-08-21T17:09:43.262Z,25.30
2022-08-21T17:10:43.261Z,25.17
2022-08-21T17:11:43.245Z,25.06
2022-08-21T17:12:43.240Z,25.10
2022-08-21T17:13:43.250Z,25.02
2022-08-21T17:14:43.207Z,25.06
2022-08-21T17:15:43.232Z,25.06
2022-08-21T17:16:43.197Z,24.93
2022-08-21T17:17:43.177Z,25.02
2022-08-21T17:18:43.222Z,25.06
2022-08-21T17:19:43.155Z,25.06
2022-08-21T17:20:43.160Z,25.03
2022-08-21T17:21:43.168Z,25.08
2022-08-21T17:22:43.123Z,25.02